createdAt,value
2022-10-17T00:04:40.931Z,4.88
2022-10-17T00:14:43.531Z,4.60
2022-10-17T00:24:47.476Z,5.15
2022-10-17T00:34:50.087Z,5.00
2022-10-17T00:45:08.124Z,4.43
2022-10-17T00:55:14.793Z,4.70
2022-10-17T01:05:20.062Z,4.30
2022-10-17T01:15:37.938Z,4.50
2022-10-17T01:25:53.380Z,4.82
2022-10-17T01:36:05.631Z,4.15
2022-10-17T01:46:17.579Z,4.20
2022-10-17T01:56:25.857Z,3.92
2022-10-17T02:06:28.562Z,3.75
2022-10-17T02:16:38.856Z,3.88
2022-10-17T02:36:51.736Z,4.05
2022-10-17T02:47:02.659Z,3.67
2022-10-17T02:57:11.672Z,4.30
2022-10-17T03:07:14.802Z,4.88
2022-10-17T03:17:18.952Z,4.13
2022-10-17T03:27:21.567Z,5.05
2022-10-17T03:37:25.519Z,4.47
2022-10-17T03:47:30.366Z,5.07
2022-10-17T03:57:35.766Z,5.45
2022-10-17T04:07:38.468Z,5.03
2022-10-17T04:17:42.475Z,6.45
2022-10-17T04:27:45.106Z,5.63
2022-10-17T04:37:49.164Z,6.13
2022-10-17T04:47:51.773Z,6.35
2022-10-17T04:57:55.756Z,6.47
2022-10-17T05:07:58.653Z,7.10
2022-10-17T05:18:02.945Z,7.18
2022-10-17T05:28:05.687Z,6.50
2022-10-17T05:38:09.909Z,6.70
2022-10-17T05:48:12.499Z,7.68
2022-10-17T05:58:21.981Z,7.80
2022-10-17T06:08:25.103Z,7.40
2022-10-17T06:18:29.118Z,7.18
2022-10-17T06:28:32.547Z,7.65
2022-10-17T06:38:36.733Z,7.10
2022-10-17T06:48:39.711Z,6.95
2022-10-17T06:58:43.850Z,7.47
2022-10-17T07:08:47.115Z,7.20
2022-10-17T07:18:51.632Z,6.90
2022-10-17T07:28:56.260Z,7.18
2022-10-17T07:39:00.271Z,6.47
2022-10-17T07:49:02.899Z,6.85
2022-10-17T07:59:09.309Z,6.00
2022-10-17T08:09:12.307Z,5.53
2022-10-17T08:19:16.226Z,5.60
2022-10-17T08:29:18.842Z,4.47
2022-10-17T08:39:22.887Z,4.50
2022-10-17T08:49:34.690Z,4.20
2022-10-17T08:59:38.751Z,3.63
2022-10-17T09:09:49.428Z,3.55
2022-10-17T09:20:01.068Z,4.28
2022-10-17T09:30:40.492Z,4.05
2022-10-17T09:40:56.875Z,3.85
2022-10-17T09:51:22.074Z,4.35
2022-10-17T10:01:28.180Z,3.78
2022-10-17T10:11:47.285Z,4.25
2022-10-17T10:32:09.679Z,4.75
2022-10-17T10:42:23.033Z,4.95
2022-10-17T10:52:33.524Z,5.05
2022-10-17T11:02:44.039Z,5.95
2022-10-17T11:12:53.557Z,5.97
2022-10-17T11:23:10.476Z,8.10
2022-10-17T11:33:18.720Z,7.75
2022-10-17T11:43:29.739Z,8.73
2022-10-17T11:53:40.703Z,8.23
2022-10-17T12:04:04.159Z,8.70
2022-10-17T12:14:40.864Z,10.13
2022-10-17T12:24:47.071Z,8.93
2022-10-17T12:34:53.946Z,11.98
2022-10-17T12:44:57.924Z,9.55
2022-10-17T12:55:14.688Z,7.35
2022-10-17T13:05:26.609Z,6.53
2022-10-17T13:15:29.254Z,5.68
2022-10-17T13:25:36.520Z,5.55
2022-10-17T13:35:59.386Z,5.68
2022-10-17T13:46:25.535Z,5.10
2022-10-17T13:56:30.815Z,5.25
2022-10-17T14:06:35.738Z,4.80
2022-10-17T14:16:41.104Z,4.40
2022-10-17T14:26:52.710Z,4.18
2022-10-17T14:36:56.194Z,4.40
2022-10-17T14:47:18.185Z,4.10
2022-10-17T14:57:35.370Z,4.63
2022-10-17T15:07:39.300Z,5.18
2022-10-17T15:17:41.905Z,3.75
2022-10-17T15:27:45.910Z,2.53
2022-10-17T15:37:48.824Z,2.80
2022-10-17T15:47:54.815Z,3.80
2022-10-17T15:57:57.423Z,4.15
2022-10-17T16:08:01.363Z,2.30
2022-10-17T16:18:06.696Z,2.72
2022-10-17T16:28:12.722Z,2.15
2022-10-17T16:38:15.320Z,2.50
2022-10-17T16:48:19.319Z,6.15
2022-10-17T16:58:21.948Z,2.75
2022-10-17T17:08:25.935Z,2.40
2022-10-17T17:18:28.686Z,4.13
2022-10-17T17:28:33.929Z,3.60
2022-10-17T17:38:37.704Z,5.97
2022-10-17T17:48:42.824Z,8.18
2022-10-17T17:58:46.821Z,6.70
2022-10-17T18:08:52.879Z,4.28
2022-10-17T18:18:55.789Z,3.55
2022-10-17T18:28:59.802Z,3.20
2022-10-17T18:39:02.797Z,3.42
2022-10-17T18:49:06.755Z,4.45
2022-10-17T18:59:09.442Z,4.55
2022-10-17T19:09:14.837Z,4.55
2022-10-17T19:19:20.931Z,5.10
2022-10-17T19:29:26.804Z,5.93
2022-10-17T19:39:29.685Z,6.40
2022-10-17T19:49:33.674Z,7.28
2022-10-17T19:59:36.301Z,7.85
2022-10-17T20:09:40.281Z,8.43
2022-10-17T20:19:43.061Z,7.78
2022-10-17T20:29:47.061Z,9.88
2022-10-17T20:39:59.962Z,9.25
2022-10-17T20:50:14.136Z,10.00
2022-10-17T21:00:16.893Z,11.50
2022-10-17T21:10:36.018Z,12.57
2022-10-17T21:20:38.654Z,12.13
2022-10-17T21:30:42.566Z,12.20
2022-10-17T21:40:48.769Z,13.70
2022-10-17T21:50:59.191Z,14.23
2022-10-17T22:01:07.154Z,14.07
2022-10-17T22:11:12.798Z,14.73
2022-10-17T22:21:17.483Z,15.60
2022-10-17T22:31:21.487Z,15.93
2022-10-17T22:41:24.274Z,17.00
2022-10-17T22:51:28.427Z,16.88
2022-10-17T23:01:31.097Z,16.52
2022-10-17T23:11:35.061Z,17.17
2022-10-17T23:21:37.651Z,17.30
2022-10-17T23:31:41.736Z,16.27
2022-10-17T23:41:44.392Z,17.10
2022-10-17T23:51:48.364Z,15.15
